createdAt,value
2023-04-18T00:02:55.708Z,7.49
2023-04-18T00:06:22.565Z,7.47
2023-04-18T00:09:59.085Z,7.46
2023-04-18T00:13:38.647Z,7.46
2023-04-18T00:17:14.547Z,7.46
2023-04-18T00:20:54.445Z,7.46
2023-04-18T00:24:30.137Z,7.45
2023-04-18T00:28:08.280Z,7.46
2023-04-18T00:31:45.562Z,7.47
2023-04-18T00:35:43.104Z,7.45
2023-04-18T00:39:26.303Z,7.43
2023-04-18T00:43:14.058Z,7.43
2023-04-18T00:46:58.927Z,7.48
2023-04-18T00:50:24.305Z,7.52
2023-04-18T00:54:21.330Z,7.51
2023-04-18T00:58:05.578Z,7.50
2023-04-18T01:01:48.994Z,7.48
2023-04-18T01:05:35.595Z,7.47
2023-04-18T01:09:24.386Z,7.44
2023-04-18T01:13:16.473Z,7.45
2023-04-18T01:16:44.253Z,7.44
2023-04-18T01:20:22.040Z,7.42
2023-04-18T01:24:09.174Z,7.40
2023-04-18T01:27:58.450Z,7.42
2023-04-18T01:31:46.729Z,7.42
2023-04-18T01:35:37.488Z,7.42
2023-04-18T01:39:01.934Z,7.42
2023-04-18T01:42:58.811Z,7.42
2023-04-18T01:46:24.822Z,7.42
2023-04-18T01:50:01.214Z,7.41
2023-04-18T01:53:38.670Z,7.42
2023-04-18T01:57:38.260Z,7.40
2023-04-18T02:01:04.235Z,7.39
2023-04-18T02:04:41.694Z,7.37
2023-04-18T02:08:19.114Z,7.37
2023-04-18T02:12:15.854Z,7.36
2023-04-18T02:15:46.044Z,7.35
2023-04-18T02:19:40.569Z,7.37
2023-04-18T02:23:24.090Z,7.35
2023-04-18T02:27:07.409Z,7.35
2023-04-18T02:30:35.045Z,7.35
2023-04-18T02:34:11.301Z,7.34
2023-04-18T02:37:47.361Z,7.33
2023-04-18T02:41:24.724Z,7.33
2023-04-18T02:45:02.751Z,7.33
2023-04-18T02:48:40.270Z,7.35
2023-04-18T02:52:19.310Z,7.39
2023-04-18T02:56:16.452Z,7.41
2023-04-18T03:00:25.102Z,7.42
2023-04-18T03:03:58.121Z,7.44
2023-04-18T03:07:50.869Z,7.44
2023-04-18T03:11:29.500Z,7.45
2023-04-18T03:15:26.408Z,7.47
2023-04-18T03:18:52.799Z,7.47
2023-04-18T03:22:49.848Z,7.53
2023-04-18T03:26:39.792Z,7.50
2023-04-18T03:30:25.716Z,7.50
2023-04-18T03:33:51.754Z,7.49
2023-04-18T03:37:48.309Z,7.49
2023-04-18T03:41:20.883Z,7.44
2023-04-18T03:44:58.613Z,7.45
2023-04-18T03:48:37.451Z,7.49
2023-04-18T03:52:33.038Z,7.49
2023-04-18T03:56:20.746Z,7.49
2023-04-18T04:00:09.695Z,7.50
2023-04-18T04:03:51.153Z,7.49
2023-04-18T04:07:35.869Z,7.51
2023-04-18T04:11:25.503Z,7.53
2023-04-18T04:14:50.442Z,7.54
2023-04-18T04:18:46.711Z,7.53
2023-04-18T04:22:12.158Z,7.57
2023-04-18T04:25:49.608Z,7.53
2023-04-18T04:29:29.119Z,7.52
2023-04-18T04:33:28.083Z,7.54
2023-04-18T04:37:14.465Z,7.55
2023-04-18T04:41:11.163Z,7.54
2023-04-18T04:45:00.042Z,7.56
2023-04-18T04:48:25.357Z,7.54
2023-04-18T04:52:04.175Z,7.52
2023-04-18T04:56:01.113Z,7.52
2023-04-18T04:59:47.196Z,7.53
2023-04-18T05:03:30.487Z,7.56
2023-04-18T05:07:15.233Z,7.61
2023-04-18T05:10:58.893Z,7.67
2023-04-18T05:14:41.984Z,7.70
2023-04-18T05:18:08.682Z,7.73
2023-04-18T05:22:08.011Z,7.76
2023-04-18T05:25:33.785Z,7.78
2023-04-18T05:29:29.970Z,7.75
2023-04-18T05:33:13.986Z,7.80
2023-04-18T05:37:00.134Z,7.88
2023-04-18T05:40:27.379Z,7.99
2023-04-18T05:44:23.509Z,8.03
2023-04-18T05:48:06.691Z,8.08
2023-04-18T05:51:32.030Z,8.12
2023-04-18T05:55:27.369Z,8.10
2023-04-18T05:59:10.716Z,8.05
2023-04-18T06:02:35.025Z,8.06
2023-04-18T06:06:32.334Z,8.13
2023-04-18T06:10:17.594Z,8.12
2023-04-18T06:13:42.997Z,8.07
2023-04-18T06:17:40.414Z,7.99
2023-04-18T06:21:28.382Z,7.99
2023-04-18T06:25:15.530Z,7.96
2023-04-18T06:28:58.851Z,7.97
2023-04-18T06:32:24.658Z,8.00
2023-04-18T06:36:01.529Z,8.07
2023-04-18T06:39:57.974Z,8.08
2023-04-18T06:43:49.173Z,8.13
2023-04-18T06:47:42.735Z,8.25
2023-04-18T06:51:07.065Z,8.38
2023-04-18T06:55:03.902Z,8.44
2023-04-18T06:58:47.837Z,8.50
2023-04-18T07:02:31.013Z,8.51
2023-04-18T07:06:14.531Z,8.53
2023-04-18T07:09:38.813Z,8.54
2023-04-18T07:13:39.866Z,8.57
2023-04-18T07:17:23.308Z,8.66
2023-04-18T07:21:09.050Z,8.69
2023-04-18T07:24:34.177Z,8.76
2023-04-18T07:28:31.827Z,8.93
2023-04-18T07:32:15.327Z,9.03
2023-04-18T07:36:00.272Z,9.06
2023-04-18T07:39:24.899Z,9.03
2023-04-18T07:43:22.849Z,9.18
2023-04-18T07:47:10.782Z,9.36
2023-04-18T07:50:37.722Z,9.41
2023-04-18T07:54:33.317Z,9.53
2023-04-18T07:57:58.030Z,9.36
2023-04-18T08:01:54.895Z,9.25
2023-04-18T08:05:19.980Z,9.35
2023-04-18T08:09:15.984Z,9.65
2023-04-18T08:12:40.847Z,10.01
2023-04-18T08:16:17.951Z,10.20
2023-04-18T08:20:14.918Z,10.27
2023-04-18T08:23:58.584Z,10.32
2023-04-18T08:27:42.625Z,10.39
2023-04-18T08:31:36.364Z,10.49
2023-04-18T08:35:19.496Z,10.62
2023-04-18T08:38:47.612Z,10.71
2023-04-18T08:42:25.121Z,10.84
2023-04-18T08:46:23.500Z,10.78
2023-04-18T08:50:08.780Z,10.66
2023-04-18T08:53:34.272Z,10.75
2023-04-18T08:57:31.072Z,10.81
2023-04-18T09:00:55.531Z,10.83
2023-04-18T09:04:58.748Z,10.94
2023-04-18T09:08:24.980Z,10.93
2023-04-18T09:12:25.658Z,10.88
2023-04-18T09:16:09.280Z,10.93
2023-04-18T09:19:53.807Z,11.13
2023-04-18T09:23:39.749Z,11.31
2023-04-18T09:27:27.565Z,11.38
2023-04-18T09:31:15.939Z,11.46
2023-04-18T09:34:43.657Z,11.31
2023-04-18T09:38:18.542Z,11.35
2023-04-18T09:42:17.340Z,11.60
2023-04-18T09:45:42.277Z,11.81
2023-04-18T09:49:38.214Z,11.85
2023-04-18T09:53:02.889Z,12.04
2023-04-18T09:56:47.016Z,12.09
2023-04-18T10:00:43.880Z,12.11
2023-04-18T10:04:12.632Z,12.29
2023-04-18T10:08:08.694Z,12.57
2023-04-18T10:11:33.243Z,12.84
2023-04-18T10:15:30.995Z,13.05
2023-04-18T10:18:59.302Z,13.07
2023-04-18T10:22:55.897Z,12.90
2023-04-18T10:26:21.068Z,12.90
2023-04-18T10:29:58.071Z,12.90
2023-04-18T10:37:28.950Z,13.17
2023-04-18T10:41:27.773Z,13.38
2023-04-18T10:45:20.027Z,13.63
2023-04-18T10:48:44.634Z,13.86
2023-04-18T10:52:22.309Z,13.78
2023-04-18T10:56:01.112Z,13.62
2023-04-18T10:59:39.658Z,13.51
2023-04-18T11:03:15.663Z,13.45
2023-04-18T11:07:11.841Z,13.61
2023-04-18T11:10:36.420Z,13.77
2023-04-18T11:14:14.297Z,13.87
2023-04-18T11:18:10.681Z,14.20
2023-04-18T11:21:35.190Z,14.60
2023-04-18T11:25:36.849Z,14.79
2023-04-18T11:29:23.615Z,14.74
2023-04-18T11:33:16.192Z,14.60
2023-04-18T11:36:59.641Z,14.41
2023-04-18T11:40:24.979Z,14.62
2023-04-18T11:44:06.320Z,14.72
2023-04-18T11:47:41.988Z,14.63
2023-04-18T11:51:44.700Z,14.82
2023-04-18T11:55:29.350Z,14.85
2023-04-18T11:58:53.895Z,14.85
2023-04-18T12:02:46.535Z,14.88
2023-04-18T12:06:48.311Z,14.99
2023-04-18T12:10:32.223Z,15.07
2023-04-18T12:13:56.905Z,15.27
2023-04-18T12:17:38.355Z,15.36
2023-04-18T12:21:11.784Z,15.59
2023-04-18T12:25:13.991Z,15.69
2023-04-18T12:28:45.210Z,16.20
2023-04-18T12:32:37.424Z,16.54
2023-04-18T12:36:05.625Z,16.78
2023-04-18T12:39:41.991Z,16.40
2023-04-18T12:43:40.469Z,15.55
2023-04-18T12:47:08.891Z,15.55
2023-04-18T12:51:06.395Z,16.06
2023-04-18T12:54:34.426Z,16.01
2023-04-18T12:58:13.191Z,16.01
2023-04-18T13:02:06.660Z,15.99
2023-04-18T13:05:36.357Z,16.55
2023-04-18T13:09:12.449Z,16.76
2023-04-18T13:12:49.838Z,16.77
2023-04-18T13:16:44.445Z,16.37
2023-04-18T13:20:27.785Z,15.56
2023-04-18T13:24:11.621Z,15.14
2023-04-18T13:27:58.076Z,14.78
2023-04-18T13:31:22.357Z,14.79
2023-04-18T13:35:00.891Z,15.14
2023-04-18T13:38:56.649Z,15.16
2023-04-18T13:42:22.342Z,14.76
2023-04-18T13:46:19.096Z,14.76
2023-04-18T13:49:43.210Z,14.79
2023-04-18T13:53:41.302Z,14.78
2023-04-18T13:57:13.403Z,14.58
2023-04-18T14:00:43.170Z,14.40
2023-04-18T14:04:40.156Z,14.47
2023-04-18T14:08:23.229Z,14.52
2023-04-18T14:12:06.566Z,14.87
2023-04-18T14:15:51.605Z,15.10
2023-04-18T14:19:16.064Z,15.20
2023-04-18T14:23:12.459Z,15.12
2023-04-18T14:26:39.535Z,14.85
2023-04-18T14:30:33.309Z,14.52
2023-04-18T14:34:17.611Z,14.50
2023-04-18T14:37:43.294Z,14.34
2023-04-18T14:41:41.622Z,14.46
2023-04-18T14:45:08.363Z,14.39
2023-04-18T14:48:47.310Z,14.29
2023-04-18T14:52:21.042Z,14.15
2023-04-18T14:56:22.666Z,13.97
2023-04-18T14:59:49.021Z,13.82
2023-04-18T15:03:45.048Z,13.73
2023-04-18T15:07:32.161Z,13.60
2023-04-18T15:10:56.543Z,13.28
2023-04-18T15:14:36.372Z,13.21
2023-04-18T15:18:13.820Z,13.15
2023-04-18T15:21:50.151Z,13.13
2023-04-18T15:25:30.028Z,13.15
2023-04-18T15:29:10.553Z,13.16
2023-04-18T15:32:46.027Z,13.07
2023-04-18T15:36:39.243Z,13.07
2023-04-18T15:40:10.403Z,12.99
2023-04-18T15:43:46.940Z,12.93
2023-04-18T15:47:21.261Z,12.84
2023-04-18T15:50:58.983Z,12.76
2023-04-18T15:54:42.823Z,12.75
2023-04-18T15:58:14.159Z,12.74
2023-04-18T16:01:52.275Z,12.64
2023-04-18T16:05:48.946Z,12.48
2023-04-18T16:09:32.444Z,12.45
2023-04-18T16:13:16.530Z,12.44
2023-04-18T16:16:42.322Z,12.33
2023-04-18T16:20:23.251Z,12.14
2023-04-18T16:23:56.366Z,12.04
2023-04-18T16:27:54.622Z,11.95
2023-04-18T16:31:20.840Z,11.90
2023-04-18T16:34:58.254Z,11.79
2023-04-18T16:38:35.756Z,11.76
2023-04-18T16:42:15.921Z,11.74
2023-04-18T16:45:51.098Z,11.65
2023-04-18T16:49:48.968Z,11.55
2023-04-18T16:53:41.299Z,11.47
2023-04-18T16:57:28.658Z,11.39
2023-04-18T17:00:54.947Z,11.35
2023-04-18T17:04:33.555Z,11.28
2023-04-18T17:08:33.551Z,11.19
2023-04-18T17:12:22.374Z,11.12
2023-04-18T17:15:49.858Z,11.04
2023-04-18T17:19:46.420Z,10.98
2023-04-18T17:23:13.961Z,10.85
2023-04-18T17:26:51.597Z,10.59
2023-04-18T17:30:49.415Z,10.29
2023-04-18T17:34:32.599Z,10.02
2023-04-18T17:37:56.775Z,9.84
2023-04-18T17:42:12.227Z,9.72
2023-04-18T17:45:59.272Z,9.66
2023-04-18T17:49:45.731Z,9.61
2023-04-18T17:53:32.026Z,9.58
2023-04-18T17:56:58.677Z,9.54
2023-04-18T18:00:55.842Z,9.52
2023-04-18T18:04:25.833Z,9.51
2023-04-18T18:08:17.619Z,9.52
2023-04-18T18:11:44.414Z,9.53
2023-04-18T18:15:40.491Z,9.52
2023-04-18T18:19:23.717Z,9.57
2023-04-18T18:22:49.965Z,9.62
2023-04-18T18:26:46.660Z,9.71
2023-04-18T18:30:33.213Z,9.79
2023-04-18T18:33:59.824Z,9.85
2023-04-18T18:37:37.807Z,9.90
2023-04-18T18:41:15.319Z,9.90
2023-04-18T18:44:53.028Z,9.84
2023-04-18T18:48:51.144Z,9.79
2023-04-18T18:52:16.018Z,9.75
2023-04-18T18:55:54.892Z,9.75
2023-04-18T18:59:49.991Z,9.75
2023-04-18T19:03:36.023Z,9.79
2023-04-18T19:07:00.921Z,9.77
2023-04-18T19:10:39.083Z,9.74
2023-04-18T19:14:35.342Z,9.69
2023-04-18T19:18:00.231Z,9.67
2023-04-18T19:21:37.456Z,9.62
2023-04-18T19:25:18.125Z,9.61
2023-04-18T19:29:13.553Z,9.60
2023-04-18T19:32:42.923Z,9.60
2023-04-18T19:36:16.534Z,9.61
2023-04-18T19:39:54.426Z,9.61
2023-04-18T19:43:51.130Z,9.61
2023-04-18T19:47:17.784Z,9.60
2023-04-18T19:50:56.640Z,9.62
2023-04-18T19:54:33.514Z,9.64
2023-04-18T19:58:10.783Z,9.66
2023-04-18T20:02:07.383Z,9.68
2023-04-18T20:05:31.684Z,9.69
2023-04-18T20:09:16.669Z,9.69
2023-04-18T20:12:47.699Z,9.71
2023-04-18T20:16:24.656Z,9.70
2023-04-18T20:20:21.235Z,9.72
2023-04-18T20:24:08.978Z,9.74
2023-04-18T20:27:36.052Z,9.76
2023-04-18T20:31:30.190Z,9.79
2023-04-18T20:34:55.286Z,9.80
2023-04-18T20:38:36.939Z,9.79
2023-04-18T20:42:14.560Z,9.78
2023-04-18T20:46:07.505Z,9.79
2023-04-18T20:49:55.866Z,9.76
2023-04-18T20:53:21.263Z,9.73
2023-04-18T20:56:57.677Z,9.66
2023-04-18T21:00:36.702Z,9.61
2023-04-18T21:04:13.387Z,9.57
2023-04-18T21:07:50.998Z,9.54
2023-04-18T21:11:47.193Z,9.60
2023-04-18T21:15:12.131Z,9.60
2023-04-18T21:18:49.120Z,9.63
2023-04-18T21:22:26.851Z,9.72
2023-04-18T21:26:04.822Z,9.87
2023-04-18T21:30:07.900Z,10.03
2023-04-18T21:33:55.304Z,10.16
2023-04-18T21:37:20.904Z,10.24
2023-04-18T21:40:58.293Z,10.24
2023-04-18T21:44:55.051Z,10.28
2023-04-18T21:48:19.299Z,10.24
2023-04-18T21:52:15.870Z,10.24
2023-04-18T21:55:41.256Z,10.20
2023-04-18T21:59:39.532Z,10.20
2023-04-18T22:03:23.785Z,10.25
2023-04-18T22:06:49.358Z,10.15
2023-04-18T22:10:27.443Z,10.12
2023-04-18T22:14:07.765Z,10.08
2023-04-18T22:17:43.114Z,10.10
2023-04-18T22:21:38.925Z,10.05
2023-04-18T22:25:23.516Z,10.00
2023-04-18T22:29:06.937Z,10.03
2023-04-18T22:32:50.269Z,10.04
2023-04-18T22:36:14.782Z,10.05
2023-04-18T22:39:53.838Z,10.08
2023-04-18T22:43:32.206Z,9.98
2023-04-18T22:47:08.595Z,9.85
2023-04-18T22:51:06.812Z,9.71
2023-04-18T22:54:52.496Z,9.63
2023-04-18T22:58:17.699Z,9.49
2023-04-18T23:02:13.362Z,9.41
2023-04-18T23:05:57.646Z,9.32
2023-04-18T23:09:43.035Z,9.27
2023-04-18T23:13:10.429Z,9.23
2023-04-18T23:17:03.830Z,9.14
2023-04-18T23:20:28.006Z,9.06
2023-04-18T23:24:24.612Z,8.99
2023-04-18T23:27:50.997Z,8.95
2023-04-18T23:31:45.278Z,8.90
2023-04-18T23:35:28.640Z,8.83
2023-04-18T23:39:12.162Z,8.75
2023-04-18T23:42:56.386Z,8.68
2023-04-18T23:46:39.309Z,8.58
2023-04-18T23:50:03.519Z,8.45
2023-04-18T23:54:00.023Z,8.36
2023-04-18T23:57:43.689Z,8.27
